createdAt,value
2023-03-26T00:00:18.120Z,6.30
2023-03-26T00:01:19.238Z,6.32
2023-03-26T00:02:18.081Z,6.32
2023-03-26T00:03:17.948Z,6.36
2023-03-26T00:04:17.925Z,6.35
2023-03-26T00:05:18.233Z,6.36
2023-03-26T00:06:17.990Z,6.38
2023-03-26T00:07:17.836Z,6.40
2023-03-26T00:08:17.929Z,6.41
2023-03-26T00:09:17.766Z,6.44
2023-03-26T00:10:17.755Z,6.46
2023-03-26T00:11:17.745Z,6.48
2023-03-26T00:12:17.722Z,6.48
2023-03-26T00:13:17.701Z,6.50
2023-03-26T00:14:17.849Z,6.50
2023-03-26T00:15:17.689Z,6.48
2023-03-26T00:16:17.729Z,6.53
2023-03-26T00:17:17.658Z,6.54
2023-03-26T00:18:17.655Z,6.51
2023-03-26T00:19:17.643Z,6.50
2023-03-26T00:20:17.642Z,6.48
2023-03-26T00:21:17.674Z,6.50
2023-03-26T00:22:17.643Z,6.51
2023-03-26T00:23:17.601Z,6.48
2023-03-26T00:24:17.608Z,6.46
2023-03-26T00:25:17.588Z,6.44
2023-03-26T00:26:17.602Z,6.41
2023-03-26T00:27:17.552Z,6.43
2023-03-26T00:28:17.546Z,6.38
2023-03-26T00:29:17.554Z,6.38
2023-03-26T00:30:17.532Z,6.35
2023-03-26T00:31:17.591Z,6.33
2023-03-26T00:32:17.534Z,6.32
2023-03-26T00:33:17.517Z,6.36
2023-03-26T00:34:17.502Z,6.38
2023-03-26T00:35:17.486Z,6.41
2023-03-26T00:36:17.516Z,6.40
2023-03-26T00:37:23.490Z,6.38
2023-03-26T00:38:17.455Z,6.36
2023-03-26T00:39:17.460Z,6.41
2023-03-26T00:40:17.427Z,6.44
2023-03-26T00:41:17.526Z,6.46
2023-03-26T00:42:17.420Z,6.47
2023-03-26T00:43:17.382Z,6.43
2023-03-26T00:44:17.410Z,6.43
2023-03-26T00:45:17.391Z,6.41
2023-03-26T00:46:17.600Z,6.43
2023-03-26T00:47:17.350Z,6.44
2023-03-26T00:48:17.361Z,6.44
2023-03-26T00:49:17.337Z,6.50
2023-03-26T00:50:17.342Z,6.54
2023-03-26T00:51:17.370Z,6.53
2023-03-26T00:52:17.306Z,6.54
2023-03-26T00:53:17.286Z,6.53
2023-03-26T00:54:17.324Z,6.50
2023-03-26T00:55:17.264Z,6.50
2023-03-26T00:56:17.282Z,6.53
2023-03-26T00:57:28.995Z,6.51
2023-03-26T00:58:17.250Z,6.53
2023-03-26T00:59:17.223Z,6.53
2023-03-26T01:00:17.240Z,6.51
2023-03-26T01:01:17.245Z,6.50
2023-03-26T01:02:17.246Z,6.51
2023-03-26T01:03:27.657Z,6.48
2023-03-26T01:04:17.279Z,6.48
2023-03-26T01:05:17.241Z,6.48
2023-03-26T01:06:17.156Z,6.48
2023-03-26T01:07:17.146Z,6.47
2023-03-26T01:08:17.132Z,6.48
2023-03-26T01:09:17.119Z,6.50
2023-03-26T01:10:17.128Z,6.48
2023-03-26T01:11:17.116Z,6.47
2023-03-26T01:12:17.100Z,6.46
2023-03-26T01:13:17.082Z,6.47
2023-03-26T01:14:17.060Z,6.47
2023-03-26T01:15:17.062Z,6.46
2023-03-26T01:16:17.106Z,6.47
2023-03-26T01:17:17.042Z,6.47
2023-03-26T01:18:17.028Z,6.44
2023-03-26T01:19:17.008Z,6.46
2023-03-26T01:20:16.998Z,6.48
2023-03-26T01:21:16.998Z,6.48
2023-03-26T01:22:16.998Z,6.47
2023-03-26T01:23:16.981Z,6.47
2023-03-26T01:24:16.951Z,6.50
2023-03-26T01:25:16.938Z,6.48
2023-03-26T01:26:16.950Z,6.46
2023-03-26T01:27:16.921Z,6.46
2023-03-26T01:28:16.925Z,6.46
2023-03-26T01:29:16.909Z,6.48
2023-03-26T01:30:16.916Z,6.44
2023-03-26T01:31:16.907Z,6.41
2023-03-26T01:32:16.911Z,6.41
2023-03-26T01:33:16.906Z,6.44
2023-03-26T01:34:16.872Z,6.43
2023-03-26T01:35:17.066Z,6.46
2023-03-26T01:36:16.874Z,6.47
2023-03-26T01:37:16.838Z,6.46
2023-03-26T01:38:16.803Z,6.50
2023-03-26T01:39:16.797Z,6.59
2023-03-26T01:40:16.794Z,6.61
2023-03-26T01:41:16.800Z,6.66
2023-03-26T01:42:16.790Z,6.66
2023-03-26T01:43:16.748Z,6.69
2023-03-26T01:44:16.758Z,6.71
2023-03-26T01:45:16.776Z,6.71
2023-03-26T01:46:16.755Z,6.72
2023-03-26T01:47:16.729Z,6.68
2023-03-26T01:48:16.757Z,6.65
2023-03-26T01:49:16.686Z,6.66
2023-03-26T01:50:16.709Z,6.65
2023-03-26T01:51:16.703Z,6.68
2023-03-26T01:52:16.669Z,6.66
2023-03-26T01:53:16.654Z,6.66
2023-03-26T01:54:16.657Z,6.65
2023-03-26T01:55:16.637Z,6.62
2023-03-26T01:56:16.665Z,6.61
2023-03-26T01:57:16.627Z,6.56
2023-03-26T01:58:16.657Z,6.54
2023-03-26T01:59:16.586Z,6.53
2023-03-26T02:00:16.588Z,6.50
2023-03-26T02:01:16.638Z,6.50
2023-03-26T02:02:16.640Z,6.51
2023-03-26T02:03:16.657Z,6.51
2023-03-26T02:04:16.560Z,6.50
2023-03-26T02:05:16.532Z,6.48
2023-03-26T02:06:16.547Z,6.48
2023-03-26T02:07:16.518Z,6.48
2023-03-26T02:08:16.498Z,6.50
2023-03-26T02:09:16.489Z,6.48
2023-03-26T02:10:16.488Z,6.48
2023-03-26T02:11:16.742Z,6.51
2023-03-26T02:12:16.481Z,6.50
2023-03-26T02:13:16.458Z,6.48
2023-03-26T02:14:16.442Z,6.44
2023-03-26T02:15:16.442Z,6.44
2023-03-26T02:16:16.792Z,6.43
2023-03-26T02:17:16.438Z,6.43
2023-03-26T02:18:16.411Z,6.40
2023-03-26T02:19:16.418Z,6.38
2023-03-26T02:20:16.381Z,6.40
2023-03-26T02:21:16.380Z,6.40
2023-03-26T02:22:16.369Z,6.40
2023-03-26T02:23:16.342Z,6.41
2023-03-26T02:24:16.339Z,6.44
2023-03-26T02:25:16.327Z,6.47
2023-03-26T02:26:16.341Z,6.47
2023-03-26T02:27:16.310Z,6.44
2023-03-26T02:28:16.310Z,6.46
2023-03-26T02:29:16.326Z,6.44
2023-03-26T02:30:16.288Z,6.44
2023-03-26T02:31:16.313Z,6.44
2023-03-26T02:32:16.255Z,6.43
2023-03-26T02:33:16.248Z,6.43
2023-03-26T02:34:16.247Z,6.41
2023-03-26T02:35:16.290Z,6.40
2023-03-26T02:36:16.360Z,6.35
2023-03-26T02:37:16.233Z,6.36
2023-03-26T02:38:16.193Z,6.40
2023-03-26T02:39:16.169Z,6.38
2023-03-26T02:40:16.172Z,6.35
2023-03-26T02:41:16.176Z,6.35
2023-03-26T02:42:16.139Z,6.35
2023-03-26T02:43:16.139Z,6.38
2023-03-26T02:44:16.125Z,6.38
2023-03-26T02:45:16.135Z,6.38
2023-03-26T02:46:16.203Z,6.38
2023-03-26T02:47:16.095Z,6.38
2023-03-26T02:48:16.103Z,6.40
2023-03-26T02:49:16.078Z,6.41
2023-03-26T02:50:16.084Z,6.41
2023-03-26T02:51:16.078Z,6.40
2023-03-26T02:52:16.052Z,6.44
2023-03-26T02:53:16.033Z,6.44
2023-03-26T02:54:16.032Z,6.46
2023-03-26T02:55:16.005Z,6.46
2023-03-26T02:56:16.032Z,6.43
2023-03-26T02:57:16.052Z,6.44
2023-03-26T02:58:15.983Z,6.44
2023-03-26T02:59:15.973Z,6.46
2023-03-26T03:00:15.969Z,6.48
2023-03-26T03:01:15.993Z,6.48
2023-03-26T03:02:15.985Z,6.48
2023-03-26T03:03:15.973Z,6.48
2023-03-26T03:04:15.912Z,6.50
2023-03-26T03:05:15.921Z,6.48
2023-03-26T03:06:15.919Z,6.50
2023-03-26T03:07:15.892Z,6.48
2023-03-26T03:08:15.896Z,6.53
2023-03-26T03:09:15.870Z,6.50
2023-03-26T03:10:15.877Z,6.51
2023-03-26T03:11:15.861Z,6.48
2023-03-26T03:12:15.847Z,6.50
2023-03-26T03:13:15.828Z,6.50
2023-03-26T03:14:15.817Z,6.50
2023-03-26T03:15:15.842Z,6.53
2023-03-26T03:16:15.813Z,6.54
2023-03-26T03:17:15.782Z,6.51
2023-03-26T03:18:15.773Z,6.51
2023-03-26T03:19:15.768Z,6.50
2023-03-26T03:20:15.762Z,6.50
2023-03-26T03:21:15.753Z,6.51
2023-03-26T03:22:15.730Z,6.51
2023-03-26T03:23:15.730Z,6.50
2023-03-26T03:24:15.746Z,6.51
2023-03-26T03:25:15.698Z,6.48
2023-03-26T03:26:15.757Z,6.47
2023-03-26T03:27:15.694Z,6.43
2023-03-26T03:28:15.672Z,6.43
2023-03-26T03:29:15.692Z,6.40
2023-03-26T03:30:15.663Z,6.38
2023-03-26T03:31:15.676Z,6.38
2023-03-26T03:32:15.648Z,6.38
2023-03-26T03:33:15.618Z,6.38
2023-03-26T03:34:15.633Z,6.38
2023-03-26T03:35:15.607Z,6.38
2023-03-26T03:36:19.790Z,6.41
2023-03-26T03:37:15.604Z,6.44
2023-03-26T03:38:15.589Z,6.44
2023-03-26T03:39:15.568Z,6.43
2023-03-26T03:40:15.549Z,6.46
2023-03-26T03:41:15.560Z,6.46
2023-03-26T03:42:15.535Z,6.46
2023-03-26T03:43:15.536Z,6.48
2023-03-26T03:44:15.519Z,6.47
2023-03-26T03:45:15.508Z,6.46
2023-03-26T03:46:15.566Z,6.44
2023-03-26T03:47:15.489Z,6.46
2023-03-26T03:48:15.481Z,6.47
2023-03-26T03:49:15.477Z,6.47
2023-03-26T03:50:15.457Z,6.47
2023-03-26T03:51:15.463Z,6.48
2023-03-26T03:52:15.447Z,6.48
2023-03-26T03:53:15.447Z,6.46
2023-03-26T03:54:15.423Z,6.46
2023-03-26T03:55:15.471Z,6.43
2023-03-26T03:56:15.436Z,6.43
2023-03-26T03:57:15.384Z,6.41
2023-03-26T03:58:15.386Z,6.43
2023-03-26T03:59:15.376Z,6.41
2023-03-26T04:00:15.356Z,6.43
2023-03-26T04:01:15.365Z,6.46
2023-03-26T04:02:15.347Z,6.46
2023-03-26T04:03:15.392Z,6.44
2023-03-26T04:04:15.364Z,6.46
2023-03-26T04:05:15.338Z,6.47
2023-03-26T04:06:15.326Z,6.47
2023-03-26T04:07:15.275Z,6.47
2023-03-26T04:08:15.269Z,6.50
2023-03-26T04:09:15.257Z,6.51
2023-03-26T04:10:15.313Z,6.53
2023-03-26T04:11:15.267Z,6.54
2023-03-26T04:12:15.272Z,6.53
2023-03-26T04:13:15.217Z,6.53
2023-03-26T04:14:15.219Z,6.54
2023-03-26T04:15:15.216Z,6.53
2023-03-26T04:16:15.231Z,6.54
2023-03-26T04:17:15.199Z,6.54
2023-03-26T04:18:15.197Z,6.56
2023-03-26T04:19:15.168Z,6.54
2023-03-26T04:20:15.191Z,6.51
2023-03-26T04:21:15.168Z,6.51
2023-03-26T04:22:15.154Z,6.51
2023-03-26T04:23:15.145Z,6.54
2023-03-26T04:24:15.121Z,6.54
2023-03-26T04:25:15.095Z,6.58
2023-03-26T04:26:15.110Z,6.56
2023-03-26T04:27:15.087Z,6.56
2023-03-26T04:28:15.094Z,6.56
2023-03-26T04:29:15.082Z,6.54
2023-03-26T04:30:15.037Z,6.56
2023-03-26T04:31:15.087Z,6.54
2023-03-26T04:32:15.033Z,6.51
2023-03-26T04:33:15.042Z,6.51
2023-03-26T04:34:15.000Z,6.51
2023-03-26T04:35:15.009Z,6.51
2023-03-26T04:36:15.013Z,6.51
2023-03-26T04:37:14.993Z,6.51
2023-03-26T04:38:14.974Z,6.51
2023-03-26T04:39:14.952Z,6.48
2023-03-26T04:40:14.958Z,6.51
2023-03-26T04:41:14.958Z,6.50
2023-03-26T04:42:14.939Z,6.51
2023-03-26T04:43:14.930Z,6.54
2023-03-26T04:44:14.899Z,6.56
2023-03-26T04:45:14.904Z,6.56
2023-03-26T04:46:14.952Z,6.56
2023-03-26T04:47:14.888Z,6.56
2023-03-26T04:48:14.857Z,6.56
2023-03-26T04:49:14.911Z,6.53
2023-03-26T04:50:14.865Z,6.54
2023-03-26T04:51:14.812Z,6.56
2023-03-26T04:52:14.827Z,6.56
2023-03-26T04:53:14.764Z,6.54
2023-03-26T04:54:14.755Z,6.58
2023-03-26T04:55:14.752Z,6.58
2023-03-26T04:56:14.744Z,6.56
2023-03-26T04:57:14.764Z,6.56
2023-03-26T04:58:14.724Z,6.54
2023-03-26T04:59:14.716Z,6.54
2023-03-26T05:00:14.747Z,6.54
2023-03-26T05:01:14.790Z,6.53
2023-03-26T05:02:14.700Z,6.54
2023-03-26T05:03:14.651Z,6.54
2023-03-26T05:04:14.827Z,6.54
2023-03-26T05:05:14.635Z,6.56
2023-03-26T05:06:14.630Z,6.54
2023-03-26T05:07:14.611Z,6.54
2023-03-26T05:08:14.631Z,6.54
2023-03-26T05:09:14.589Z,6.54
2023-03-26T05:10:14.604Z,6.56
2023-03-26T05:11:14.586Z,6.56
2023-03-26T05:12:14.598Z,6.56
2023-03-26T05:13:14.572Z,6.59
2023-03-26T05:14:14.544Z,6.59
2023-03-26T05:15:14.548Z,6.63
2023-03-26T05:16:14.590Z,6.62
2023-03-26T05:17:14.522Z,6.62
2023-03-26T05:18:14.493Z,6.63
2023-03-26T05:19:14.491Z,6.65
2023-03-26T05:20:14.492Z,6.68
2023-03-26T05:21:14.495Z,6.68
2023-03-26T05:22:14.481Z,6.68
2023-03-26T05:23:14.463Z,6.68
2023-03-26T05:24:14.441Z,6.63
2023-03-26T05:25:14.451Z,6.61
2023-03-26T05:26:14.428Z,6.59
2023-03-26T05:27:14.400Z,6.58
2023-03-26T05:28:14.401Z,6.54
2023-03-26T05:29:14.437Z,6.51
2023-03-26T05:30:14.367Z,6.50
2023-03-26T05:31:14.383Z,6.48
2023-03-26T05:32:14.413Z,6.48
2023-03-26T05:33:14.490Z,6.50
2023-03-26T05:34:14.339Z,6.51
2023-03-26T05:35:14.335Z,6.51
2023-03-26T05:36:14.323Z,6.51
2023-03-26T05:37:14.303Z,6.51
2023-03-26T05:38:14.304Z,6.51
2023-03-26T05:39:14.311Z,6.53
2023-03-26T05:40:14.268Z,6.58
2023-03-26T05:41:14.335Z,6.61
2023-03-26T05:42:14.257Z,6.62
2023-03-26T05:43:14.254Z,6.63
2023-03-26T05:44:14.232Z,6.65
2023-03-26T05:45:14.226Z,6.68
2023-03-26T05:46:14.270Z,6.68
2023-03-26T05:47:14.247Z,6.68
2023-03-26T05:48:14.196Z,6.68
2023-03-26T05:49:14.185Z,6.69
2023-03-26T05:50:14.155Z,6.71
2023-03-26T05:51:14.166Z,6.69
2023-03-26T05:52:14.151Z,6.66
2023-03-26T05:53:14.145Z,6.69
2023-03-26T05:54:14.137Z,6.72
2023-03-26T05:55:14.137Z,6.76
2023-03-26T05:56:14.133Z,6.77
2023-03-26T05:57:14.135Z,6.77
2023-03-26T05:58:14.072Z,6.76
2023-03-26T05:59:14.093Z,6.77
2023-03-26T06:00:14.064Z,6.72
2023-03-26T06:01:14.081Z,6.73
2023-03-26T06:02:14.052Z,6.77
2023-03-26T06:03:14.151Z,6.76
2023-03-26T06:04:14.121Z,6.77
2023-03-26T06:05:14.024Z,6.76
2023-03-26T06:06:14.003Z,6.79
2023-03-26T06:07:13.999Z,6.79
2023-03-26T06:08:13.965Z,6.79
2023-03-26T06:09:13.962Z,6.81
2023-03-26T06:10:18.501Z,6.83
2023-03-26T06:11:13.960Z,6.84
2023-03-26T06:12:13.942Z,6.87
2023-03-26T06:13:13.953Z,6.84
2023-03-26T06:14:13.925Z,6.86
2023-03-26T06:15:13.920Z,6.87
2023-03-26T06:16:26.346Z,6.91
2023-03-26T06:17:13.922Z,6.90
2023-03-26T06:18:13.924Z,6.91
2023-03-26T06:19:13.899Z,6.94
2023-03-26T06:20:13.846Z,6.97
2023-03-26T06:21:13.850Z,7.01
2023-03-26T06:22:13.877Z,7.02
2023-03-26T06:23:13.819Z,7.04
2023-03-26T06:24:13.818Z,7.04
2023-03-26T06:25:13.804Z,7.04
2023-03-26T06:26:13.785Z,7.07
2023-03-26T06:27:13.782Z,7.05
2023-03-26T06:28:13.771Z,7.04
2023-03-26T06:29:13.748Z,7.07
2023-03-26T06:30:13.753Z,7.05
2023-03-26T06:31:13.784Z,7.07
2023-03-26T06:32:19.655Z,7.09
2023-03-26T06:33:13.725Z,7.07
2023-03-26T06:34:13.742Z,7.04
2023-03-26T06:35:13.690Z,7.02
2023-03-26T06:36:13.789Z,7.04
2023-03-26T06:37:13.675Z,7.07
2023-03-26T06:38:13.668Z,7.07
2023-03-26T06:39:13.649Z,7.08
2023-03-26T06:40:14.850Z,7.08
2023-03-26T06:41:13.697Z,7.12
2023-03-26T06:42:13.635Z,7.13
2023-03-26T06:43:13.636Z,7.15
2023-03-26T06:44:13.606Z,7.12
2023-03-26T06:45:13.596Z,7.12
2023-03-26T06:46:13.602Z,7.09
2023-03-26T06:47:13.580Z,7.16
2023-03-26T06:48:13.572Z,7.17
2023-03-26T06:49:13.550Z,7.16
2023-03-26T06:50:13.543Z,7.16
2023-03-26T06:51:13.554Z,7.16
2023-03-26T06:52:13.515Z,7.12
2023-03-26T06:53:13.537Z,7.12
2023-03-26T06:54:13.505Z,7.08
2023-03-26T06:55:13.497Z,7.05
2023-03-26T06:56:13.492Z,7.05
2023-03-26T06:57:13.557Z,7.05
2023-03-26T06:58:13.462Z,7.05
2023-03-26T06:59:13.439Z,7.07
2023-03-26T07:00:13.429Z,7.13
2023-03-26T07:01:13.534Z,7.16
2023-03-26T07:02:13.404Z,7.17
2023-03-26T07:03:13.398Z,7.16
2023-03-26T07:04:13.459Z,7.13
2023-03-26T07:05:13.388Z,7.13
2023-03-26T07:06:13.387Z,7.16
2023-03-26T07:07:13.357Z,7.16
2023-03-26T07:08:13.388Z,7.16
2023-03-26T07:09:13.371Z,7.16
2023-03-26T07:10:13.346Z,7.17
2023-03-26T07:11:13.343Z,7.16
2023-03-26T07:12:13.301Z,7.13
2023-03-26T07:13:13.305Z,7.09
2023-03-26T07:14:13.294Z,7.09
2023-03-26T07:15:13.284Z,7.08
2023-03-26T07:16:13.323Z,7.04
2023-03-26T07:17:13.259Z,7.02
2023-03-26T07:18:13.244Z,7.01
2023-03-26T07:19:13.237Z,7.02
2023-03-26T07:20:13.236Z,7.04
2023-03-26T07:21:13.253Z,7.01
2023-03-26T07:22:13.210Z,6.97
2023-03-26T07:23:13.206Z,6.98
2023-03-26T07:24:13.185Z,6.94
2023-03-26T07:25:13.174Z,6.94
2023-03-26T07:26:13.182Z,6.94
2023-03-26T07:27:13.189Z,6.94
2023-03-26T07:28:13.166Z,6.90
2023-03-26T07:29:13.133Z,6.83
2023-03-26T07:30:13.109Z,6.80
2023-03-26T07:31:13.119Z,6.77
2023-03-26T07:32:13.100Z,6.80
2023-03-26T07:33:13.091Z,6.80
2023-03-26T07:34:13.081Z,6.79
2023-03-26T07:35:13.061Z,6.79
2023-03-26T07:36:13.083Z,6.73
2023-03-26T07:37:13.052Z,6.73
2023-03-26T07:38:13.041Z,6.77
2023-03-26T07:39:13.029Z,6.80
2023-03-26T07:40:13.025Z,6.81
2023-03-26T07:41:13.030Z,6.80
2023-03-26T07:42:12.989Z,6.80
2023-03-26T07:43:12.981Z,6.81
2023-03-26T07:44:12.964Z,6.81
2023-03-26T07:45:12.950Z,6.81
2023-03-26T07:46:13.011Z,6.83
2023-03-26T07:47:12.950Z,6.77
2023-03-26T07:48:12.923Z,6.73
2023-03-26T07:49:12.914Z,6.69
2023-03-26T07:50:12.905Z,6.65
2023-03-26T07:51:12.916Z,6.65
2023-03-26T07:52:12.892Z,6.65
2023-03-26T07:53:12.864Z,6.68
2023-03-26T07:54:12.864Z,6.66
2023-03-26T07:55:12.866Z,6.66
2023-03-26T07:56:12.895Z,6.63
2023-03-26T07:57:12.965Z,6.68
2023-03-26T07:58:12.814Z,6.66
2023-03-26T07:59:12.836Z,6.66
2023-03-26T08:00:12.802Z,6.66
2023-03-26T08:01:12.876Z,6.68
2023-03-26T08:02:12.773Z,6.68
2023-03-26T08:03:12.916Z,6.71
2023-03-26T08:04:26.308Z,6.71
2023-03-26T08:05:12.842Z,6.72
2023-03-26T08:06:12.775Z,6.71
2023-03-26T08:07:12.723Z,6.72
2023-03-26T08:08:12.704Z,6.73
2023-03-26T08:09:12.712Z,6.69
2023-03-26T08:10:12.688Z,6.69
2023-03-26T08:11:12.757Z,6.71
2023-03-26T08:12:12.663Z,6.73
2023-03-26T08:13:12.686Z,6.72
2023-03-26T08:14:12.651Z,6.73
2023-03-26T08:15:12.647Z,6.77
2023-03-26T08:16:12.679Z,6.79
2023-03-26T08:17:12.630Z,6.79
2023-03-26T08:18:12.614Z,6.79
2023-03-26T08:19:12.589Z,6.77
2023-03-26T08:20:12.592Z,6.84
2023-03-26T08:21:12.578Z,6.89
2023-03-26T08:22:12.587Z,6.91
2023-03-26T08:23:12.559Z,6.95
2023-03-26T08:24:12.550Z,6.91
2023-03-26T08:25:12.546Z,6.87
2023-03-26T08:26:12.544Z,6.91
2023-03-26T08:27:12.521Z,6.91
2023-03-26T08:28:12.510Z,6.89
2023-03-26T08:29:12.493Z,6.89
2023-03-26T08:30:12.501Z,6.87
2023-03-26T08:31:12.537Z,6.89
2023-03-26T08:32:12.467Z,6.89
2023-03-26T08:33:12.453Z,6.98
2023-03-26T08:34:12.470Z,7.07
2023-03-26T08:35:12.453Z,7.09
2023-03-26T08:36:12.447Z,7.16
2023-03-26T08:37:12.429Z,7.20
2023-03-26T08:38:12.397Z,7.27
2023-03-26T08:39:12.415Z,7.31
2023-03-26T08:40:12.388Z,7.38
2023-03-26T08:41:12.409Z,7.42
2023-03-26T08:42:12.350Z,7.53
2023-03-26T08:43:12.345Z,7.58
2023-03-26T08:44:12.322Z,7.62
2023-03-26T08:45:12.324Z,7.59
2023-03-26T08:46:12.334Z,7.59
2023-03-26T08:47:12.309Z,7.62
2023-03-26T08:48:12.289Z,7.69
2023-03-26T08:49:12.267Z,7.66
2023-03-26T08:50:12.297Z,7.66
2023-03-26T08:51:12.309Z,7.72
2023-03-26T08:52:12.260Z,7.78
2023-03-26T08:53:12.232Z,7.89
2023-03-26T08:54:12.342Z,7.90
2023-03-26T08:55:12.231Z,7.84
2023-03-26T08:56:12.215Z,7.74
2023-03-26T08:57:12.247Z,7.81
2023-03-26T08:58:12.236Z,7.81
2023-03-26T08:59:12.172Z,7.89
2023-03-26T09:00:12.176Z,8.00
2023-03-26T09:01:12.187Z,8.07
2023-03-26T09:02:12.177Z,8.12
2023-03-26T09:03:12.120Z,8.26
2023-03-26T09:04:12.213Z,8.36
2023-03-26T09:05:12.131Z,8.29
2023-03-26T09:06:12.143Z,8.17
2023-03-26T09:07:12.111Z,8.22
2023-03-26T09:08:12.081Z,8.25
2023-03-26T09:09:18.817Z,8.39
2023-03-26T09:10:12.069Z,8.45
2023-03-26T09:11:12.047Z,8.63
2023-03-26T09:12:12.043Z,8.76
2023-03-26T09:13:12.035Z,8.75
2023-03-26T09:14:12.034Z,8.88
2023-03-26T09:15:12.016Z,8.97
2023-03-26T09:16:12.099Z,9.13
2023-03-26T09:17:11.970Z,9.13
2023-03-26T09:18:11.998Z,9.20
2023-03-26T09:19:11.982Z,9.18
2023-03-26T09:20:11.967Z,9.01
2023-03-26T09:21:11.974Z,8.90
2023-03-26T09:22:11.940Z,8.97
2023-03-26T09:23:13.395Z,8.99
2023-03-26T09:24:11.910Z,9.18
2023-03-26T09:25:11.904Z,9.27
2023-03-26T09:26:11.942Z,9.39
2023-03-26T09:27:11.879Z,9.35
2023-03-26T09:28:11.878Z,9.30
2023-03-26T09:29:11.865Z,9.27
2023-03-26T09:30:11.888Z,9.35
2023-03-26T09:31:11.923Z,9.58
2023-03-26T09:32:11.868Z,9.76
2023-03-26T09:33:11.818Z,9.89
2023-03-26T09:34:11.819Z,10.06
2023-03-26T09:35:13.248Z,10.28
2023-03-26T09:36:11.845Z,10.37
2023-03-26T09:37:11.798Z,10.58
2023-03-26T09:38:11.786Z,10.62
2023-03-26T09:39:11.771Z,10.71
2023-03-26T09:40:11.787Z,10.83
2023-03-26T09:41:11.793Z,10.88
2023-03-26T09:42:11.771Z,10.78
2023-03-26T09:43:11.769Z,10.84
2023-03-26T09:44:11.721Z,10.88
2023-03-26T09:45:11.694Z,10.76
2023-03-26T09:46:11.819Z,10.76
2023-03-26T09:47:11.675Z,10.80
2023-03-26T09:48:11.722Z,10.80
2023-03-26T09:49:11.680Z,11.06
2023-03-26T09:50:11.693Z,11.20
2023-03-26T09:51:11.657Z,11.34
2023-03-26T09:52:11.675Z,11.43
2023-03-26T09:53:11.638Z,11.38
2023-03-26T09:54:11.613Z,11.28
2023-03-26T09:55:11.593Z,11.28
2023-03-26T09:56:11.700Z,11.20
2023-03-26T09:57:11.636Z,11.35
2023-03-26T09:58:11.584Z,11.49
2023-03-26T09:59:11.574Z,11.36
2023-03-26T10:00:11.625Z,11.20
2023-03-26T10:01:11.587Z,11.16
2023-03-26T10:02:11.559Z,11.16
2023-03-26T10:03:11.557Z,11.09
2023-03-26T10:04:11.552Z,10.98
2023-03-26T10:05:11.521Z,10.95
2023-03-26T10:06:11.507Z,10.98
2023-03-26T10:07:11.485Z,11.02
2023-03-26T10:08:11.492Z,11.13
2023-03-26T10:09:11.481Z,11.34
2023-03-26T10:10:11.458Z,11.46
2023-03-26T10:11:11.451Z,11.43
2023-03-26T10:12:11.454Z,11.43
2023-03-26T10:13:14.843Z,11.32
2023-03-26T10:14:11.426Z,11.21
2023-03-26T10:15:11.416Z,11.09
2023-03-26T10:16:11.433Z,11.11
2023-03-26T10:17:11.396Z,11.32
2023-03-26T10:18:27.061Z,11.56
2023-03-26T10:19:11.373Z,11.62
2023-03-26T10:20:11.365Z,11.67
2023-03-26T10:21:11.342Z,11.75
2023-03-26T10:22:11.324Z,11.80
2023-03-26T10:23:11.313Z,11.74
2023-03-26T10:24:11.324Z,11.57
2023-03-26T10:25:11.281Z,11.53
2023-03-26T10:26:11.308Z,11.46
2023-03-26T10:27:11.271Z,11.38
2023-03-26T10:28:11.280Z,11.29
2023-03-26T10:29:11.322Z,11.19
2023-03-26T10:30:11.266Z,11.02
2023-03-26T10:31:11.374Z,10.95
2023-03-26T10:32:11.228Z,11.06
2023-03-26T10:33:11.241Z,11.19
2023-03-26T10:34:28.443Z,11.25
2023-03-26T10:35:11.191Z,11.35
2023-03-26T10:36:11.252Z,11.49
2023-03-26T10:37:11.153Z,11.64
2023-03-26T10:38:11.154Z,11.62
2023-03-26T10:39:11.154Z,11.64
2023-03-26T10:40:11.141Z,11.68
2023-03-26T10:41:11.234Z,11.86
2023-03-26T10:42:11.114Z,11.85
2023-03-26T10:43:12.545Z,11.90
2023-03-26T10:44:11.121Z,11.86
2023-03-26T10:45:11.098Z,11.77
2023-03-26T10:46:11.229Z,11.67
2023-03-26T10:47:11.062Z,11.59
2023-03-26T10:48:11.070Z,11.72
2023-03-26T10:49:11.045Z,11.89
2023-03-26T10:50:11.037Z,11.93
2023-03-26T10:51:11.041Z,11.89
2023-03-26T10:52:11.005Z,12.01
2023-03-26T10:53:11.040Z,12.01
2023-03-26T10:54:10.996Z,11.90
2023-03-26T10:55:10.979Z,11.97
2023-03-26T10:56:10.981Z,11.94
2023-03-26T10:57:11.018Z,11.86
2023-03-26T10:58:10.950Z,11.78
2023-03-26T10:59:10.942Z,11.89
2023-03-26T11:00:10.926Z,11.87
2023-03-26T11:01:10.951Z,11.87
2023-03-26T11:02:10.914Z,11.89
2023-03-26T11:03:10.919Z,11.96
2023-03-26T11:04:10.893Z,11.99
2023-03-26T11:05:10.932Z,11.94
2023-03-26T11:06:10.901Z,11.85
2023-03-26T11:07:10.908Z,11.78
2023-03-26T11:08:10.862Z,11.65
2023-03-26T11:09:10.850Z,11.74
2023-03-26T11:10:10.828Z,11.80
2023-03-26T11:11:10.815Z,11.82
2023-03-26T11:12:26.124Z,11.82
2023-03-26T11:13:10.822Z,11.80
2023-03-26T11:14:10.817Z,11.89
2023-03-26T11:15:10.771Z,11.99
2023-03-26T11:16:10.836Z,12.01
2023-03-26T11:17:15.139Z,12.13
2023-03-26T11:18:10.866Z,12.16
2023-03-26T11:19:10.746Z,12.27
2023-03-26T11:20:10.774Z,12.38
2023-03-26T11:21:19.815Z,12.37
2023-03-26T11:22:10.705Z,12.45
2023-03-26T11:23:10.767Z,12.46
2023-03-26T11:24:10.698Z,12.42
2023-03-26T11:25:10.712Z,12.45
2023-03-26T11:26:10.711Z,12.52
2023-03-26T11:27:16.025Z,12.54
2023-03-26T11:28:12.257Z,12.48
2023-03-26T11:29:31.224Z,12.41
2023-03-26T11:30:10.675Z,12.44
2023-03-26T11:31:10.642Z,12.52
2023-03-26T11:32:10.625Z,12.59
2023-03-26T11:33:10.601Z,12.69
2023-03-26T11:34:10.607Z,12.70
2023-03-26T11:35:10.633Z,12.71
2023-03-26T11:36:10.621Z,12.67
2023-03-26T11:37:10.569Z,12.64
2023-03-26T11:38:10.540Z,12.64
2023-03-26T11:39:10.531Z,12.62
2023-03-26T11:40:10.532Z,12.52
2023-03-26T11:41:10.516Z,12.46
2023-03-26T11:42:10.518Z,12.52
2023-03-26T11:43:10.494Z,12.56
2023-03-26T11:44:10.500Z,12.52
2023-03-26T11:45:10.472Z,12.54
2023-03-26T11:46:10.511Z,12.59
2023-03-26T11:47:10.525Z,12.48
2023-03-26T11:48:10.453Z,12.51
2023-03-26T11:49:10.433Z,12.67
2023-03-26T11:50:10.469Z,12.85
2023-03-26T11:51:10.497Z,12.96
2023-03-26T11:52:10.406Z,13.02
2023-03-26T11:53:10.427Z,13.02
2023-03-26T11:54:10.457Z,13.06
2023-03-26T11:55:10.417Z,13.09
2023-03-26T11:56:10.387Z,13.15
2023-03-26T11:57:10.428Z,13.29
2023-03-26T11:58:11.190Z,13.30
2023-03-26T11:59:10.325Z,13.18
2023-03-26T12:00:10.330Z,13.14
2023-03-26T12:01:10.694Z,13.20
2023-03-26T12:02:10.384Z,13.29
2023-03-26T12:03:10.376Z,13.38
2023-03-26T12:04:10.328Z,13.46
2023-03-26T12:05:10.275Z,13.51
2023-03-26T12:06:10.268Z,13.55
2023-03-26T12:07:10.315Z,13.54
2023-03-26T12:08:10.240Z,13.55
2023-03-26T12:09:10.253Z,13.52
2023-03-26T12:10:18.324Z,13.49
2023-03-26T12:11:10.232Z,13.47
2023-03-26T12:12:10.205Z,13.37
2023-03-26T12:13:10.216Z,13.41
2023-03-26T12:14:10.219Z,13.33
2023-03-26T12:15:10.204Z,13.27
2023-03-26T12:16:10.204Z,13.20
2023-03-26T12:17:10.155Z,13.24
2023-03-26T12:18:10.204Z,13.18
2023-03-26T12:19:10.129Z,13.15
2023-03-26T12:20:10.137Z,13.04
2023-03-26T12:21:10.224Z,13.07
2023-03-26T12:22:10.074Z,13.00
2023-03-26T12:23:10.057Z,13.03
2023-03-26T12:24:10.048Z,12.88
2023-03-26T12:25:10.038Z,12.79
2023-03-26T12:26:10.055Z,12.74
2023-03-26T12:27:10.060Z,12.79
2023-03-26T12:28:10.019Z,13.03
2023-03-26T12:29:10.045Z,13.22
2023-03-26T12:30:10.043Z,13.51
2023-03-26T12:31:09.986Z,13.69
2023-03-26T12:32:10.004Z,13.73
2023-03-26T12:33:10.003Z,13.87
2023-03-26T12:34:09.947Z,13.88
2023-03-26T12:35:09.967Z,13.91
2023-03-26T12:36:09.971Z,14.02
2023-03-26T12:37:09.930Z,14.04
2023-03-26T12:38:16.593Z,13.94
2023-03-26T12:39:16.790Z,13.83
2023-03-26T12:40:17.073Z,13.76
2023-03-26T12:43:19.841Z,13.63
2023-03-26T12:45:02.396Z,13.63
2023-03-26T12:45:07.864Z,13.61
2023-03-26T12:47:56.241Z,13.51
2023-03-26T12:48:07.478Z,13.58
2023-03-26T12:48:13.152Z,13.62
2023-03-26T12:49:13.020Z,13.59
2023-03-26T12:50:12.906Z,13.62
2023-03-26T12:51:12.894Z,13.69
2023-03-26T12:52:12.904Z,13.69
2023-03-26T12:53:12.908Z,13.63
2023-03-26T12:54:12.870Z,13.65
2023-03-26T12:55:12.976Z,13.73
2023-03-26T12:56:13.062Z,13.89
2023-03-26T13:02:24.127Z,14.06
2023-03-26T13:02:29.535Z,14.12
2023-03-26T13:02:35.077Z,14.04
2023-03-26T13:03:35.020Z,13.96
2023-03-26T13:04:35.028Z,13.89
2023-03-26T13:05:35.010Z,13.74
2023-03-26T13:06:59.538Z,13.71
2023-03-26T13:07:34.983Z,13.67
2023-03-26T13:08:34.988Z,13.59
2023-03-26T13:09:34.960Z,13.61
2023-03-26T13:10:34.956Z,13.41
2023-03-26T13:11:34.938Z,13.41
2023-03-26T13:12:34.964Z,13.43
2023-03-26T13:13:34.909Z,13.37
2023-03-26T13:14:34.901Z,13.38
2023-03-26T13:15:34.927Z,13.49
2023-03-26T13:16:35.088Z,13.59